sensor_id;sensor_type;location;lat;lon;timestamp;pressure;altitude;pressure_sealevel;temperature;humidity
57250;BME280;43102;52.014;-0.680;2023-04-05T00:00:00;101508;;;8.39;58.62
57250;BME280;43102;52.014;-0.680;2023-04-05T00:01:00;101508;;;8.39;58.62
57250;BME280;43102;52.014;-0.680;2023-04-05T00:02:00;101508;;;8.39;58.62
57250;BME280;43102;52.014;-0.680;2023-04-05T00:03:00;101503;;;8.37;58.89
57250;BME280;43102;52.014;-0.680;2023-04-05T00:04:00;101503;;;8.37;58.89
57250;BME280;43102;52.014;-0.680;2023-04-05T00:05:00;101503;;;8.37;58.89
57250;BME280;43102;52.014;-0.680;2023-04-05T00:06:00;101503;;;8.37;58.89
57250;BME280;43102;52.014;-0.680;2023-04-05T00:07:00;101503;;;8.37;58.89
57250;BME280;43102;52.014;-0.680;2023-04-05T00:08:01;101504;;;8.40;59.10
57250;BME280;43102;52.014;-0.680;2023-04-05T00:09:01;101504;;;8.40;59.10
57250;BME280;43102;52.014;-0.680;2023-04-05T00:10:00;101504;;;8.40;59.10
57250;BME280;43102;52.014;-0.680;2023-04-05T00:11:00;101504;;;8.40;59.10
57250;BME280;43102;52.014;-0.680;2023-04-05T00:12:00;101504;;;8.40;59.10
57250;BME280;43102;52.014;-0.680;2023-04-05T00:13:00;101505;;;8.44;59.13
57250;BME280;43102;52.014;-0.680;2023-04-05T00:14:01;101505;;;8.44;59.13
57250;BME280;43102;52.014;-0.680;2023-04-05T00:15:00;101505;;;8.44;59.13
57250;BME280;43102;52.014;-0.680;2023-04-05T00:16:00;101505;;;8.44;59.13
57250;BME280;43102;52.014;-0.680;2023-04-05T00:17:00;101505;;;8.44;59.13
57250;BME280;43102;52.014;-0.680;2023-04-05T00:18:00;101502;;;8.47;59.35
57250;BME280;43102;52.014;-0.680;2023-04-05T00:19:00;101502;;;8.47;59.35
57250;BME280;43102;52.014;-0.680;2023-04-05T00:20:00;101502;;;8.47;59.35
57250;BME280;43102;52.014;-0.680;2023-04-05T00:21:00;101502;;;8.47;59.35
57250;BME280;43102;52.014;-0.680;2023-04-05T00:22:00;101502;;;8.47;59.35
57250;BME280;43102;52.014;-0.680;2023-04-05T00:23:00;101497;;;8.49;59.41
57250;BME280;43102;52.014;-0.680;2023-04-05T00:24:00;101497;;;8.49;59.41
57250;BME280;43102;52.014;-0.680;2023-04-05T00:25:01;101497;;;8.49;59.41
57250;BME280;43102;52.014;-0.680;2023-04-05T00:26:00;101497;;;8.49;59.41
57250;BME280;43102;52.014;-0.680;2023-04-05T00:27:00;101497;;;8.49;59.41
57250;BME280;43102;52.014;-0.680;2023-04-05T00:28:00;101489;;;8.49;59.54
57250;BME280;43102;52.014;-0.680;2023-04-05T00:29:00;101489;;;8.49;59.54
57250;BME280;43102;52.014;-0.680;2023-04-05T00:30:00;101489;;;8.49;59.54
57250;BME280;43102;52.014;-0.680;2023-04-05T00:31:00;101489;;;8.49;59.54
57250;BME280;43102;52.014;-0.680;2023-04-05T00:32:00;101489;;;8.49;59.54
57250;BME280;43102;52.014;-0.680;2023-04-05T00:33:00;101485;;;8.52;59.64
57250;BME280;43102;52.014;-0.680;2023-04-05T00:34:00;101485;;;8.52;59.64
57250;BME280;43102;52.014;-0.680;2023-04-05T00:35:00;101485;;;8.52;59.64
57250;BME280;43102;52.014;-0.680;2023-04-05T00:36:18;101485;;;8.52;59.64
57250;BME280;43102;52.014;-0.680;2023-04-05T00:37:00;101485;;;8.52;59.64
57250;BME280;43102;52.014;-0.680;2023-04-05T00:38:00;101480;;;8.54;59.70
57250;BME280;43102;52.014;-0.680;2023-04-05T00:39:00;101480;;;8.54;59.70
57250;BME280;43102;52.014;-0.680;2023-04-05T00:40:00;101480;;;8.54;59.70
57250;BME280;43102;52.014;-0.680;2023-04-05T00:41:00;101480;;;8.54;59.70
57250;BME280;43102;52.014;-0.680;2023-04-05T00:42:02;101480;;;8.54;59.70
57250;BME280;43102;52.014;-0.680;2023-04-05T00:43:00;101476;;;8.52;59.88
57250;BME280;43102;52.014;-0.680;2023-04-05T00:44:00;101476;;;8.52;59.88
57250;BME280;43102;52.014;-0.680;2023-04-05T00:45:00;101476;;;8.52;59.88
57250;BME280;43102;52.014;-0.680;2023-04-05T00:46:00;101476;;;8.52;59.88
57250;BME280;43102;52.014;-0.680;2023-04-05T00:47:01;101476;;;8.52;59.88
57250;BME280;43102;52.014;-0.680;2023-04-05T00:48:00;101477;;;8.53;60.05
57250;BME280;43102;52.014;-0.680;2023-04-05T00:49:00;101477;;;8.53;60.05
57250;BME280;43102;52.014;-0.680;2023-04-05T00:50:00;101477;;;8.53;60.05
57250;BME280;43102;52.014;-0.680;2023-04-05T00:51:00;101477;;;8.53;60.05
57250;BME280;43102;52.014;-0.680;2023-04-05T00:52:00;101477;;;8.53;60.05
57250;BME280;43102;52.014;-0.680;2023-04-05T00:53:00;101471;;;8.52;60.20
57250;BME280;43102;52.014;-0.680;2023-04-05T00:54:02;101471;;;8.52;60.20
57250;BME280;43102;52.014;-0.680;2023-04-05T00:55:00;101471;;;8.52;60.20
57250;BME280;43102;52.014;-0.680;2023-04-05T00:56:00;101471;;;8.52;60.20
57250;BME280;43102;52.014;-0.680;2023-04-05T00:57:00;101471;;;8.52;60.20
57250;BME280;43102;52.014;-0.680;2023-04-05T00:58:00;101468;;;8.52;60.37
57250;BME280;43102;52.014;-0.680;2023-04-05T00:59:00;101468;;;8.52;60.37
57250;BME280;43102;52.014;-0.680;2023-04-05T01:00:00;101468;;;8.52;60.37
57250;BME280;43102;52.014;-0.680;2023-04-05T01:01:02;101468;;;8.52;60.37
57250;BME280;43102;52.014;-0.680;2023-04-05T01:02:32;101468;;;8.52;60.37
57250;BME280;43102;52.014;-0.680;2023-04-05T01:03:00;101459;;;8.51;60.46
57250;BME280;43102;52.014;-0.680;2023-04-05T01:04:00;101459;;;8.51;60.46
57250;BME280;43102;52.014;-0.680;2023-04-05T01:05:02;101459;;;8.51;60.46
57250;BME280;43102;52.014;-0.680;2023-04-05T01:06:09;101459;;;8.51;60.46
57250;BME280;43102;52.014;-0.680;2023-04-05T01:07:06;101459;;;8.51;60.46
57250;BME280;43102;52.014;-0.680;2023-04-05T01:08:06;101452;;;8.50;60.47
57250;BME280;43102;52.014;-0.680;2023-04-05T01:09:10;101452;;;8.50;60.47
57250;BME280;43102;52.014;-0.680;2023-04-05T01:10:00;101452;;;8.50;60.47
57250;BME280;43102;52.014;-0.680;2023-04-05T01:11:02;101452;;;8.50;60.47
57250;BME280;43102;52.014;-0.680;2023-04-05T01:12:01;101452;;;8.50;60.47
57250;BME280;43102;52.014;-0.680;2023-04-05T01:13:00;101442;;;8.47;60.76
57250;BME280;43102;52.014;-0.680;2023-04-05T01:14:00;101442;;;8.47;60.76
57250;BME280;43102;52.014;-0.680;2023-04-05T01:15:00;101442;;;8.47;60.76
57250;BME280;43102;52.014;-0.680;2023-04-05T01:16:00;101442;;;8.47;60.76
57250;BME280;43102;52.014;-0.680;2023-04-05T01:17:00;101442;;;8.47;60.76
57250;BME280;43102;52.014;-0.680;2023-04-05T01:18:00;101436;;;8.44;60.93
57250;BME280;43102;52.014;-0.680;2023-04-05T01:19:00;101436;;;8.44;60.93
57250;BME280;43102;52.014;-0.680;2023-04-05T01:20:01;101436;;;8.44;60.93
57250;BME280;43102;52.014;-0.680;2023-04-05T01:22:06;101436;;;8.44;60.93
57250;BME280;43102;52.014;-0.680;2023-04-05T01:23:04;101430;;;8.43;61.07
57250;BME280;43102;52.014;-0.680;2023-04-05T01:26:09;101430;;;8.43;61.07
57250;BME280;43102;52.014;-0.680;2023-04-05T01:27:19;101430;;;8.43;61.07
57250;BME280;43102;52.014;-0.680;2023-04-05T01:30:02;101422;;;8.31;61.54
57250;BME280;43102;52.014;-0.680;2023-04-05T01:31:05;101422;;;8.31;61.54
57250;BME280;43102;52.014;-0.680;2023-04-05T01:34:17;101420;;;8.37;61.25
57250;BME280;43102;52.014;-0.680;2023-04-05T01:35:03;101420;;;8.37;61.25
57250;BME280;43102;52.014;-0.680;2023-04-05T01:36:03;101420;;;8.37;61.25
57250;BME280;43102;52.014;-0.680;2023-04-05T01:37:01;101420;;;8.37;61.25
57250;BME280;43102;52.014;-0.680;2023-04-05T01:38:02;101419;;;8.31;61.29
57250;BME280;43102;52.014;-0.680;2023-04-05T01:39:00;101419;;;8.31;61.29
57250;BME280;43102;52.014;-0.680;2023-04-05T01:40:00;101419;;;8.31;61.29
57250;BME280;43102;52.014;-0.680;2023-04-05T01:41:00;101419;;;8.31;61.29
57250;BME280;43102;52.014;-0.680;2023-04-05T01:42:01;101419;;;8.31;61.29
57250;BME280;43102;52.014;-0.680;2023-04-05T01:43:00;101416;;;8.24;61.59
57250;BME280;43102;52.014;-0.680;2023-04-05T01:44:00;101416;;;8.24;61.59
57250;BME280;43102;52.014;-0.680;2023-04-05T01:45:00;101416;;;8.24;61.59
57250;BME280;43102;52.014;-0.680;2023-04-05T01:46:00;101416;;;8.24;61.59
57250;BME280;43102;52.014;-0.680;2023-04-05T01:47:00;101416;;;8.24;61.59
57250;BME280;43102;52.014;-0.680;2023-04-05T01:48:00;101407;;;8.16;61.68
57250;BME280;43102;52.014;-0.680;2023-04-05T01:49:00;101407;;;8.16;61.68
57250;BME280;43102;52.014;-0.680;2023-04-05T01:50:00;101407;;;8.16;61.68
57250;BME280;43102;52.014;-0.680;2023-04-05T01:51:00;101407;;;8.16;61.68
57250;BME280;43102;52.014;-0.680;2023-04-05T01:52:00;101407;;;8.16;61.68
57250;BME280;43102;52.014;-0.680;2023-04-05T01:53:00;101403;;;8.09;61.91
57250;BME280;43102;52.014;-0.680;2023-04-05T01:54:00;101403;;;8.09;61.91
57250;BME280;43102;52.014;-0.680;2023-04-05T01:55:00;101403;;;8.09;61.91
57250;BME280;43102;52.014;-0.680;2023-04-05T01:56:00;101403;;;8.09;61.91
57250;BME280;43102;52.014;-0.680;2023-04-05T01:57:00;101403;;;8.09;61.91
57250;BME280;43102;52.014;-0.680;2023-04-05T01:58:00;101400;;;8.03;61.99
57250;BME280;43102;52.014;-0.680;2023-04-05T01:59:00;101400;;;8.03;61.99
57250;BME280;43102;52.014;-0.680;2023-04-05T02:00:00;101400;;;8.03;61.99
57250;BME280;43102;52.014;-0.680;2023-04-05T02:01:00;101400;;;8.03;61.99
57250;BME280;43102;52.014;-0.680;2023-04-05T02:02:00;101400;;;8.03;61.99
57250;BME280;43102;52.014;-0.680;2023-04-05T02:03:00;101399;;;7.95;62.21
57250;BME280;43102;52.014;-0.680;2023-04-05T02:04:00;101399;;;7.95;62.21
57250;BME280;43102;52.014;-0.680;2023-04-05T02:05:00;101399;;;7.95;62.21
57250;BME280;43102;52.014;-0.680;2023-04-05T02:06:00;101399;;;7.95;62.21
57250;BME280;43102;52.014;-0.680;2023-04-05T02:07:00;101399;;;7.95;62.21
57250;BME280;43102;52.014;-0.680;2023-04-05T02:08:00;101395;;;7.86;62.30
57250;BME280;43102;52.014;-0.680;2023-04-05T02:09:00;101395;;;7.86;62.30
57250;BME280;43102;52.014;-0.680;2023-04-05T02:10:00;101395;;;7.86;62.30
57250;BME280;43102;52.014;-0.680;2023-04-05T02:11:00;101395;;;7.86;62.30
57250;BME280;43102;52.014;-0.680;2023-04-05T02:12:00;101395;;;7.86;62.30
57250;BME280;43102;52.014;-0.680;2023-04-05T02:13:00;101392;;;7.81;62.56
57250;BME280;43102;52.014;-0.680;2023-04-05T02:14:00;101392;;;7.81;62.56
57250;BME280;43102;52.014;-0.680;2023-04-05T02:15:00;101392;;;7.81;62.56
57250;BME280;43102;52.014;-0.680;2023-04-05T02:16:00;101392;;;7.81;62.56
57250;BME280;43102;52.014;-0.680;2023-04-05T02:17:00;101392;;;7.81;62.56
57250;BME280;43102;52.014;-0.680;2023-04-05T02:18:00;101386;;;7.77;62.71
57250;BME280;43102;52.014;-0.680;2023-04-05T02:19:00;101386;;;7.77;62.71
57250;BME280;43102;52.014;-0.680;2023-04-05T02:20:00;101386;;;7.77;62.71
57250;BME280;43102;52.014;-0.680;2023-04-05T02:21:01;101386;;;7.77;62.71
57250;BME280;43102;52.014;-0.680;2023-04-05T02:22:00;101386;;;7.77;62.71
57250;BME280;43102;52.014;-0.680;2023-04-05T02:23:00;101383;;;7.76;62.76
57250;BME280;43102;52.014;-0.680;2023-04-05T02:24:00;101383;;;7.76;62.76
57250;BME280;43102;52.014;-0.680;2023-04-05T02:25:00;101383;;;7.76;62.76
57250;BME280;43102;52.014;-0.680;2023-04-05T02:26:00;101383;;;7.76;62.76
57250;BME280;43102;52.014;-0.680;2023-04-05T02:27:00;101383;;;7.76;62.76
57250;BME280;43102;52.014;-0.680;2023-04-05T02:28:00;101382;;;7.75;62.88
57250;BME280;43102;52.014;-0.680;2023-04-05T02:29:00;101382;;;7.75;62.88
57250;BME280;43102;52.014;-0.680;2023-04-05T02:30:00;101382;;;7.75;62.88
57250;BME280;43102;52.014;-0.680;2023-04-05T02:31:00;101382;;;7.75;62.88
57250;BME280;43102;52.014;-0.680;2023-04-05T02:32:00;101382;;;7.75;62.88
57250;BME280;43102;52.014;-0.680;2023-04-05T02:33:00;101379;;;7.73;63.06
57250;BME280;43102;52.014;-0.680;2023-04-05T02:34:00;101379;;;7.73;63.06
57250;BME280;43102;52.014;-0.680;2023-04-05T02:35:00;101379;;;7.73;63.06
57250;BME280;43102;52.014;-0.680;2023-04-05T02:36:02;101379;;;7.73;63.06
57250;BME280;43102;52.014;-0.680;2023-04-05T02:37:00;101379;;;7.73;63.06
57250;BME280;43102;52.014;-0.680;2023-04-05T02:38:01;101367;;;7.72;63.10
57250;BME280;43102;52.014;-0.680;2023-04-05T02:39:00;101367;;;7.72;63.10
57250;BME280;43102;52.014;-0.680;2023-04-05T02:40:00;101367;;;7.72;63.10
57250;BME280;43102;52.014;-0.680;2023-04-05T02:41:00;101367;;;7.72;63.10
57250;BME280;43102;52.014;-0.680;2023-04-05T02:42:00;101367;;;7.72;63.10
57250;BME280;43102;52.014;-0.680;2023-04-05T02:43:00;101360;;;7.68;63.23
57250;BME280;43102;52.014;-0.680;2023-04-05T02:44:00;101360;;;7.68;63.23
57250;BME280;43102;52.014;-0.680;2023-04-05T02:45:00;101360;;;7.68;63.23
57250;BME280;43102;52.014;-0.680;2023-04-05T02:46:00;101360;;;7.68;63.23
57250;BME280;43102;52.014;-0.680;2023-04-05T02:47:00;101360;;;7.68;63.23
57250;BME280;43102;52.014;-0.680;2023-04-05T02:48:00;101359;;;7.63;63.39
57250;BME280;43102;52.014;-0.680;2023-04-05T02:49:00;101359;;;7.63;63.39
57250;BME280;43102;52.014;-0.680;2023-04-05T02:50:00;101359;;;7.63;63.39
57250;BME280;43102;52.014;-0.680;2023-04-05T02:51:00;101359;;;7.63;63.39
57250;BME280;43102;52.014;-0.680;2023-04-05T02:52:00;101359;;;7.63;63.39
57250;BME280;43102;52.014;-0.680;2023-04-05T02:53:00;101364;;;7.62;63.45
57250;BME280;43102;52.014;-0.680;2023-04-05T02:54:01;101364;;;7.62;63.45
57250;BME280;43102;52.014;-0.680;2023-04-05T02:55:00;101364;;;7.62;63.45
57250;BME280;43102;52.014;-0.680;2023-04-05T02:56:00;101364;;;7.62;63.45
57250;BME280;43102;52.014;-0.680;2023-04-05T02:57:00;101364;;;7.62;63.45
57250;BME280;43102;52.014;-0.680;2023-04-05T02:58:00;101358;;;7.59;63.45
57250;BME280;43102;52.014;-0.680;2023-04-05T02:59:00;101358;;;7.59;63.45
57250;BME280;43102;52.014;-0.680;2023-04-05T03:00:00;101358;;;7.59;63.45
57250;BME280;43102;52.014;-0.680;2023-04-05T03:01:00;101358;;;7.59;63.45
57250;BME280;43102;52.014;-0.680;2023-04-05T03:02:00;101358;;;7.59;63.45
57250;BME280;43102;52.014;-0.680;2023-04-05T03:03:00;101353;;;7.57;63.60
57250;BME280;43102;52.014;-0.680;2023-04-05T03:04:01;101353;;;7.57;63.60
57250;BME280;43102;52.014;-0.680;2023-04-05T03:05:00;101353;;;7.57;63.60
57250;BME280;43102;52.014;-0.680;2023-04-05T03:06:01;101353;;;7.57;63.60
57250;BME280;43102;52.014;-0.680;2023-04-05T03:07:00;101353;;;7.57;63.60
57250;BME280;43102;52.014;-0.680;2023-04-05T03:08:00;101348;;;7.58;63.70
57250;BME280;43102;52.014;-0.680;2023-04-05T03:09:00;101348;;;7.58;63.70
57250;BME280;43102;52.014;-0.680;2023-04-05T03:10:00;101348;;;7.58;63.70
57250;BME280;43102;52.014;-0.680;2023-04-05T03:11:00;101348;;;7.58;63.70
57250;BME280;43102;52.014;-0.680;2023-04-05T03:12:00;101348;;;7.58;63.70
57250;BME280;43102;52.014;-0.680;2023-04-05T03:13:00;101340;;;7.57;63.86
57250;BME280;43102;52.014;-0.680;2023-04-05T03:14:00;101340;;;7.57;63.86
57250;BME280;43102;52.014;-0.680;2023-04-05T03:15:00;101340;;;7.57;63.86
57250;BME280;43102;52.014;-0.680;2023-04-05T03:16:01;101340;;;7.57;63.86
57250;BME280;43102;52.014;-0.680;2023-04-05T03:17:00;101340;;;7.57;63.86
57250;BME280;43102;52.014;-0.680;2023-04-05T03:18:00;101340;;;7.61;63.76
57250;BME280;43102;52.014;-0.680;2023-04-05T03:19:00;101340;;;7.61;63.76
57250;BME280;43102;52.014;-0.680;2023-04-05T03:20:00;101340;;;7.61;63.76
57250;BME280;43102;52.014;-0.680;2023-04-05T03:21:00;101340;;;7.61;63.76
57250;BME280;43102;52.014;-0.680;2023-04-05T03:22:00;101340;;;7.61;63.76
57250;BME280;43102;52.014;-0.680;2023-04-05T03:23:00;101338;;;7.65;63.73
57250;BME280;43102;52.014;-0.680;2023-04-05T03:24:00;101338;;;7.65;63.73
57250;BME280;43102;52.014;-0.680;2023-04-05T03:25:00;101338;;;7.65;63.73
57250;BME280;43102;52.014;-0.680;2023-04-05T03:26:00;101338;;;7.65;63.73
57250;BME280;43102;52.014;-0.680;2023-04-05T03:27:00;101338;;;7.65;63.73
57250;BME280;43102;52.014;-0.680;2023-04-05T03:28:01;101337;;;7.71;63.57
57250;BME280;43102;52.014;-0.680;2023-04-05T03:29:00;101337;;;7.71;63.57
57250;BME280;43102;52.014;-0.680;2023-04-05T03:30:00;101337;;;7.71;63.57
57250;BME280;43102;52.014;-0.680;2023-04-05T03:31:00;101337;;;7.71;63.57
57250;BME280;43102;52.014;-0.680;2023-04-05T03:32:00;101337;;;7.71;63.57
57250;BME280;43102;52.014;-0.680;2023-04-05T03:33:00;101336;;;7.69;63.59
57250;BME280;43102;52.014;-0.680;2023-04-05T03:34:00;101336;;;7.69;63.59
57250;BME280;43102;52.014;-0.680;2023-04-05T03:35:00;101336;;;7.69;63.59
57250;BME280;43102;52.014;-0.680;2023-04-05T03:36:00;101336;;;7.69;63.59
57250;BME280;43102;52.014;-0.680;2023-04-05T03:37:00;101336;;;7.69;63.59
57250;BME280;43102;52.014;-0.680;2023-04-05T03:38:00;101337;;;7.66;63.55
57250;BME280;43102;52.014;-0.680;2023-04-05T03:39:00;101337;;;7.66;63.55
57250;BME280;43102;52.014;-0.680;2023-04-05T03:40:00;101337;;;7.66;63.55
57250;BME280;43102;52.014;-0.680;2023-04-05T03:41:01;101337;;;7.66;63.55
57250;BME280;43102;52.014;-0.680;2023-04-05T03:42:00;101337;;;7.66;63.55
57250;BME280;43102;52.014;-0.680;2023-04-05T03:43:00;101333;;;7.67;63.51
57250;BME280;43102;52.014;-0.680;2023-04-05T03:44:00;101333;;;7.67;63.51
57250;BME280;43102;52.014;-0.680;2023-04-05T03:45:00;101333;;;7.67;63.51
57250;BME280;43102;52.014;-0.680;2023-04-05T03:46:00;101333;;;7.67;63.51
57250;BME280;43102;52.014;-0.680;2023-04-05T03:47:00;101333;;;7.67;63.51
57250;BME280;43102;52.014;-0.680;2023-04-05T03:48:00;101331;;;7.67;63.52
57250;BME280;43102;52.014;-0.680;2023-04-05T03:49:01;101331;;;7.67;63.52
57250;BME280;43102;52.014;-0.680;2023-04-05T03:50:00;101331;;;7.67;63.52
57250;BME280;43102;52.014;-0.680;2023-04-05T03:51:00;101331;;;7.67;63.52
57250;BME280;43102;52.014;-0.680;2023-04-05T03:52:00;101331;;;7.67;63.52
57250;BME280;43102;52.014;-0.680;2023-04-05T03:53:00;101333;;;7.67;63.46
57250;BME280;43102;52.014;-0.680;2023-04-05T03:54:00;101333;;;7.67;63.46
57250;BME280;43102;52.014;-0.680;2023-04-05T03:55:00;101333;;;7.67;63.46
57250;BME280;43102;52.014;-0.680;2023-04-05T03:56:00;101333;;;7.67;63.46
57250;BME280;43102;52.014;-0.680;2023-04-05T03:57:00;101333;;;7.67;63.46
57250;BME280;43102;52.014;-0.680;2023-04-05T03:58:00;101333;;;7.63;63.57
57250;BME280;43102;52.014;-0.680;2023-04-05T03:59:00;101333;;;7.63;63.57
57250;BME280;43102;52.014;-0.680;2023-04-05T04:00:00;101333;;;7.63;63.57
57250;BME280;43102;52.014;-0.680;2023-04-05T04:01:00;101333;;;7.63;63.57
57250;BME280;43102;52.014;-0.680;2023-04-05T04:02:00;101333;;;7.63;63.57
57250;BME280;43102;52.014;-0.680;2023-04-05T04:03:00;101321;;;7.61;63.65
57250;BME280;43102;52.014;-0.680;2023-04-05T04:04:00;101321;;;7.61;63.65
57250;BME280;43102;52.014;-0.680;2023-04-05T04:05:00;101321;;;7.61;63.65
57250;BME280;43102;52.014;-0.680;2023-04-05T04:06:00;101321;;;7.61;63.65
57250;BME280;43102;52.014;-0.680;2023-04-05T04:07:00;101321;;;7.61;63.65
57250;BME280;43102;52.014;-0.680;2023-04-05T04:08:00;101319;;;7.56;63.82
57250;BME280;43102;52.014;-0.680;2023-04-05T04:09:00;101319;;;7.56;63.82
57250;BME280;43102;52.014;-0.680;2023-04-05T04:10:00;101319;;;7.56;63.82
57250;BME280;43102;52.014;-0.680;2023-04-05T04:11:00;101319;;;7.56;63.82
57250;BME280;43102;52.014;-0.680;2023-04-05T04:12:00;101319;;;7.56;63.82
57250;BME280;43102;52.014;-0.680;2023-04-05T04:13:00;101313;;;7.54;64.14
57250;BME280;43102;52.014;-0.680;2023-04-05T04:14:00;101313;;;7.54;64.14
57250;BME280;43102;52.014;-0.680;2023-04-05T04:15:00;101313;;;7.54;64.14
57250;BME280;43102;52.014;-0.680;2023-04-05T04:16:00;101313;;;7.54;64.14
57250;BME280;43102;52.014;-0.680;2023-04-05T04:17:00;101313;;;7.54;64.14
57250;BME280;43102;52.014;-0.680;2023-04-05T04:18:00;101314;;;7.55;64.10
57250;BME280;43102;52.014;-0.680;2023-04-05T04:19:00;101314;;;7.55;64.10
57250;BME280;43102;52.014;-0.680;2023-04-05T04:20:00;101314;;;7.55;64.10
57250;BME280;43102;52.014;-0.680;2023-04-05T04:21:01;101314;;;7.55;64.10
57250;BME280;43102;52.014;-0.680;2023-04-05T04:22:00;101314;;;7.55;64.10
57250;BME280;43102;52.014;-0.680;2023-04-05T04:23:00;101314;;;7.57;64.14
57250;BME280;43102;52.014;-0.680;2023-04-05T04:24:00;101314;;;7.57;64.14
57250;BME280;43102;52.014;-0.680;2023-04-05T04:25:00;101314;;;7.57;64.14
57250;BME280;43102;52.014;-0.680;2023-04-05T04:26:00;101314;;;7.57;64.14
57250;BME280;43102;52.014;-0.680;2023-04-05T04:27:00;101314;;;7.57;64.14
57250;BME280;43102;52.014;-0.680;2023-04-05T04:28:02;101310;;;7.56;64.18
57250;BME280;43102;52.014;-0.680;2023-04-05T04:29:00;101310;;;7.56;64.18
57250;BME280;43102;52.014;-0.680;2023-04-05T04:30:00;101310;;;7.56;64.18
57250;BME280;43102;52.014;-0.680;2023-04-05T04:31:00;101310;;;7.56;64.18
57250;BME280;43102;52.014;-0.680;2023-04-05T04:32:00;101310;;;7.56;64.18
57250;BME280;43102;52.014;-0.680;2023-04-05T04:33:00;101303;;;7.53;64.37
57250;BME280;43102;52.014;-0.680;2023-04-05T04:34:00;101303;;;7.53;64.37
57250;BME280;43102;52.014;-0.680;2023-04-05T04:35:00;101303;;;7.53;64.37
57250;BME280;43102;52.014;-0.680;2023-04-05T04:36:04;101303;;;7.53;64.37
57250;BME280;43102;52.014;-0.680;2023-04-05T04:37:00;101303;;;7.53;64.37
57250;BME280;43102;52.014;-0.680;2023-04-05T04:38:01;101295;;;7.55;64.51
57250;BME280;43102;52.014;-0.680;2023-04-05T04:39:00;101295;;;7.55;64.51
57250;BME280;43102;52.014;-0.680;2023-04-05T04:40:00;101295;;;7.55;64.51
57250;BME280;43102;52.014;-0.680;2023-04-05T04:41:05;101295;;;7.55;64.51
57250;BME280;43102;52.014;-0.680;2023-04-05T04:42:00;101295;;;7.55;64.51
57250;BME280;43102;52.014;-0.680;2023-04-05T04:43:00;101288;;;7.53;64.95
57250;BME280;43102;52.014;-0.680;2023-04-05T04:44:00;101288;;;7.53;64.95
57250;BME280;43102;52.014;-0.680;2023-04-05T04:45:00;101288;;;7.53;64.95
57250;BME280;43102;52.014;-0.680;2023-04-05T04:46:00;101288;;;7.53;64.95
57250;BME280;43102;52.014;-0.680;2023-04-05T04:47:00;101288;;;7.53;64.95
57250;BME280;43102;52.014;-0.680;2023-04-05T04:48:00;101284;;;7.52;64.84
57250;BME280;43102;52.014;-0.680;2023-04-05T04:49:00;101284;;;7.52;64.84
57250;BME280;43102;52.014;-0.680;2023-04-05T04:50:00;101284;;;7.52;64.84
57250;BME280;43102;52.014;-0.680;2023-04-05T04:51:01;101284;;;7.52;64.84
57250;BME280;43102;52.014;-0.680;2023-04-05T04:52:00;101284;;;7.52;64.84
57250;BME280;43102;52.014;-0.680;2023-04-05T04:53:00;101286;;;7.46;65.16
57250;BME280;43102;52.014;-0.680;2023-04-05T04:54:00;101286;;;7.46;65.16
57250;BME280;43102;52.014;-0.680;2023-04-05T04:55:00;101286;;;7.46;65.16
57250;BME280;43102;52.014;-0.680;2023-04-05T04:56:00;101286;;;7.46;65.16
57250;BME280;43102;52.014;-0.680;2023-04-05T04:57:01;101286;;;7.46;65.16
57250;BME280;43102;52.014;-0.680;2023-04-05T04:58:00;101288;;;7.47;65.13
57250;BME280;43102;52.014;-0.680;2023-04-05T04:59:00;101288;;;7.47;65.13
57250;BME280;43102;52.014;-0.680;2023-04-05T05:00:00;101288;;;7.47;65.13
57250;BME280;43102;52.014;-0.680;2023-04-05T05:01:00;101288;;;7.47;65.13
57250;BME280;43102;52.014;-0.680;2023-04-05T05:02:00;101288;;;7.47;65.13
57250;BME280;43102;52.014;-0.680;2023-04-05T05:03:00;101283;;;7.48;65.25
57250;BME280;43102;52.014;-0.680;2023-04-05T05:04:01;101283;;;7.48;65.25
57250;BME280;43102;52.014;-0.680;2023-04-05T05:05:00;101283;;;7.48;65.25
57250;BME280;43102;52.014;-0.680;2023-04-05T05:06:00;101283;;;7.48;65.25
57250;BME280;43102;52.014;-0.680;2023-04-05T05:07:00;101283;;;7.48;65.25
57250;BME280;43102;52.014;-0.680;2023-04-05T05:08:00;101285;;;7.46;65.11
57250;BME280;43102;52.014;-0.680;2023-04-05T05:09:00;101285;;;7.46;65.11
57250;BME280;43102;52.014;-0.680;2023-04-05T05:10:00;101285;;;7.46;65.11
57250;BME280;43102;52.014;-0.680;2023-04-05T05:11:00;101285;;;7.46;65.11
57250;BME280;43102;52.014;-0.680;2023-04-05T05:12:00;101285;;;7.46;65.11
57250;BME280;43102;52.014;-0.680;2023-04-05T05:13:00;101288;;;7.48;64.91
57250;BME280;43102;52.014;-0.680;2023-04-05T05:14:00;101288;;;7.48;64.91
57250;BME280;43102;52.014;-0.680;2023-04-05T05:15:00;101288;;;7.48;64.91
57250;BME280;43102;52.014;-0.680;2023-04-05T05:16:00;101288;;;7.48;64.91
57250;BME280;43102;52.014;-0.680;2023-04-05T05:17:00;101288;;;7.48;64.91
57250;BME280;43102;52.014;-0.680;2023-04-05T05:18:00;101280;;;7.50;64.63
57250;BME280;43102;52.014;-0.680;2023-04-05T05:19:00;101280;;;7.50;64.63
57250;BME280;43102;52.014;-0.680;2023-04-05T05:20:00;101280;;;7.50;64.63
57250;BME280;43102;52.014;-0.680;2023-04-05T05:21:00;101280;;;7.50;64.63
57250;BME280;43102;52.014;-0.680;2023-04-05T05:22:00;101280;;;7.50;64.63
57250;BME280;43102;52.014;-0.680;2023-04-05T05:23:00;101281;;;7.53;64.35
57250;BME280;43102;52.014;-0.680;2023-04-05T05:24:00;101281;;;7.53;64.35
57250;BME280;43102;52.014;-0.680;2023-04-05T05:25:01;101281;;;7.53;64.35
57250;BME280;43102;52.014;-0.680;2023-04-05T05:26:00;101281;;;7.53;64.35
57250;BME280;43102;52.014;-0.680;2023-04-05T05:27:00;101281;;;7.53;64.35
57250;BME280;43102;52.014;-0.680;2023-04-05T05:28:00;101272;;;7.55;64.23
57250;BME280;43102;52.014;-0.680;2023-04-05T05:29:00;101272;;;7.55;64.23
57250;BME280;43102;52.014;-0.680;2023-04-05T05:30:00;101272;;;7.55;64.23
57250;BME280;43102;52.014;-0.680;2023-04-05T05:31:01;101272;;;7.55;64.23
57250;BME280;43102;52.014;-0.680;2023-04-05T05:32:00;101272;;;7.55;64.23
57250;BME280;43102;52.014;-0.680;2023-04-05T05:33:00;101280;;;7.55;63.83